createdAt,value
2018-05-31T00:01:46.266Z,100975.98
2018-05-31T00:04:20.873Z,100972.95
2018-05-31T00:06:56.110Z,100968.55
2018-05-31T00:09:30.921Z,100972.16
2018-05-31T00:12:05.465Z,100972.36
2018-05-31T00:14:40.654Z,100974.30
2018-05-31T00:17:15.558Z,100968.39
2018-05-31T00:19:50.586Z,100971.88
2018-05-31T00:22:25.609Z,100965.28
2018-05-31T00:25:00.362Z,100963.20
2018-05-31T00:27:35.345Z,100963.69
2018-05-31T00:30:10.554Z,100970.20
2018-05-31T00:32:45.974Z,100965.53
2018-05-31T00:35:21.053Z,100969.52
2018-05-31T00:37:56.207Z,100964.62
2018-05-31T00:40:31.181Z,100966.74
2018-05-31T00:43:06.422Z,100957.70
2018-05-31T00:45:41.759Z,100959.68
2018-05-31T00:48:17.009Z,100965.30
2018-05-31T00:50:51.718Z,100963.13
2018-05-31T00:53:26.500Z,100959.10
2018-05-31T00:56:16.997Z,100957.73
2018-05-31T00:58:51.657Z,100958.42
2018-05-31T01:01:26.720Z,100949.37
2018-05-31T01:04:01.810Z,100950.68
2018-05-31T01:06:36.767Z,100950.61
2018-05-31T01:09:12.218Z,100950.01
2018-05-31T01:11:47.298Z,100959.05
2018-05-31T01:14:22.386Z,100963.28
2018-05-31T01:16:57.049Z,100961.60
2018-05-31T01:19:31.870Z,100964.72
2018-05-31T01:22:06.916Z,100965.13
2018-05-31T01:24:41.859Z,100963.78
2018-05-31T01:27:16.798Z,100960.13
2018-05-31T01:29:53.210Z,100957.22
2018-05-31T01:32:28.799Z,100958.95
2018-05-31T01:35:04.055Z,100956.28
2018-05-31T01:37:39.077Z,100950.75
2018-05-31T01:40:14.382Z,100949.84
2018-05-31T01:42:49.590Z,100949.97
2018-05-31T01:45:24.798Z,100949.36
2018-05-31T01:48:00.504Z,100954.80
2018-05-31T01:50:35.781Z,100960.52
2018-05-31T01:53:11.025Z,100960.67
2018-05-31T01:55:45.924Z,100962.27
2018-05-31T01:58:21.115Z,100966.94
2018-05-31T02:00:56.065Z,100958.97
2018-05-31T02:03:31.312Z,100960.95
2018-05-31T02:06:05.606Z,100959.41
2018-05-31T02:08:41.031Z,100968.33
2018-05-31T02:11:16.166Z,100970.23
2018-05-31T02:13:50.880Z,100965.73
2018-05-31T02:16:26.345Z,100966.36
2018-05-31T02:19:01.391Z,100974.36
2018-05-31T02:21:36.209Z,100973.95
2018-05-31T02:24:20.526Z,100970.13
2018-05-31T02:26:55.193Z,100962.02
2018-05-31T02:29:29.929Z,100963.88
2018-05-31T02:32:04.651Z,100958.84
2018-05-31T02:34:39.686Z,100950.87
2018-05-31T02:37:14.534Z,100949.03
2018-05-31T02:39:49.437Z,100960.21
2018-05-31T02:42:24.490Z,100960.55
2018-05-31T02:44:59.588Z,100969.27
2018-05-31T02:47:34.749Z,100966.80
2018-05-31T02:50:10.214Z,100975.55
2018-05-31T02:52:45.130Z,100967.30
2018-05-31T02:55:20.490Z,100972.34
2018-05-31T02:57:55.634Z,100966.13
2018-05-31T03:00:30.947Z,100962.87
2018-05-31T03:03:06.035Z,100964.25
2018-05-31T03:05:41.245Z,100967.59
2018-05-31T03:08:16.698Z,100962.16
2018-05-31T03:10:51.796Z,100961.23
2018-05-31T03:13:27.010Z,100953.53
2018-05-31T03:16:01.649Z,100958.87
2018-05-31T03:18:36.337Z,100969.06
2018-05-31T03:21:11.782Z,100969.86
2018-05-31T03:23:47.104Z,100966.83
2018-05-31T03:26:22.577Z,100958.66
2018-05-31T03:28:57.699Z,100961.02
2018-05-31T03:31:32.930Z,100965.53
2018-05-31T03:34:08.471Z,100963.56
2018-05-31T03:36:43.611Z,100974.83
2018-05-31T03:39:18.366Z,100969.64
2018-05-31T03:41:53.087Z,100966.47
2018-05-31T03:44:27.894Z,100953.34
2018-05-31T03:47:02.897Z,100953.30
2018-05-31T03:49:37.601Z,100962.79
2018-05-31T03:52:12.603Z,100962.19
2018-05-31T03:54:47.564Z,100960.42
2018-05-31T03:57:22.382Z,100967.47
2018-05-31T03:59:57.493Z,100964.16
2018-05-31T04:02:32.633Z,100961.27
2018-05-31T04:05:07.774Z,100961.91
2018-05-31T04:07:43.197Z,100960.05
2018-05-31T04:10:18.382Z,100956.50
2018-05-31T04:12:53.866Z,100957.03
2018-05-31T04:15:29.444Z,100955.79
2018-05-31T04:18:04.690Z,100954.11
2018-05-31T04:20:39.594Z,100956.28
2018-05-31T04:23:14.454Z,100955.94
2018-05-31T04:25:49.286Z,100958.95
2018-05-31T04:28:24.582Z,100960.00
2018-05-31T04:30:59.201Z,100961.15
2018-05-31T04:33:34.825Z,100960.66
2018-05-31T04:36:10.045Z,100957.07
2018-05-31T04:38:45.102Z,100961.37
2018-05-31T04:41:20.136Z,100955.89
2018-05-31T04:43:55.145Z,100958.53
2018-05-31T04:46:30.289Z,100960.58
2018-05-31T04:49:04.831Z,100958.98
2018-05-31T04:51:39.773Z,100960.35
2018-05-31T04:54:14.716Z,100958.55
2018-05-31T04:56:49.601Z,100957.12
2018-05-31T04:59:24.578Z,100959.87
2018-05-31T05:01:59.246Z,100962.18
2018-05-31T05:04:34.486Z,100964.21
2018-05-31T05:07:09.486Z,100969.90
2018-05-31T05:09:44.284Z,100963.19
2018-05-31T05:12:19.256Z,100973.98
2018-05-31T05:14:54.278Z,100980.83
2018-05-31T05:17:29.311Z,100974.94
2018-05-31T05:20:04.009Z,100973.36
2018-05-31T05:22:38.579Z,100980.36
2018-05-31T05:25:13.300Z,100982.78
2018-05-31T05:27:48.930Z,100981.50
2018-05-31T05:30:23.745Z,100978.22
2018-05-31T05:32:58.349Z,100983.34
2018-05-31T05:35:33.398Z,100978.66
2018-05-31T05:38:08.445Z,100981.59
2018-05-31T05:40:43.556Z,100979.45
2018-05-31T05:43:18.403Z,100975.81
2018-05-31T05:45:53.686Z,100975.23
2018-05-31T05:48:29.018Z,100971.77
2018-05-31T05:51:03.951Z,100966.00
2018-05-31T05:53:38.767Z,100968.25
2018-05-31T05:56:13.693Z,100971.56
2018-05-31T05:58:48.779Z,100975.58
2018-05-31T06:01:23.781Z,100978.00
2018-05-31T06:03:58.922Z,100977.89
2018-05-31T06:06:33.951Z,100978.39
2018-05-31T06:09:08.769Z,100974.69
2018-05-31T06:11:43.710Z,100982.56
2018-05-31T06:14:18.554Z,100984.11
2018-05-31T06:16:53.374Z,100992.86
2018-05-31T06:19:28.582Z,100995.30
2018-05-31T06:22:03.278Z,100998.68
2018-05-31T06:24:38.558Z,101002.33
2018-05-31T06:27:13.277Z,100995.35
2018-05-31T06:29:48.359Z,100992.41
2018-05-31T06:32:23.781Z,100998.48
2018-05-31T06:34:59.042Z,101000.20
2018-05-31T06:37:33.868Z,100997.03
2018-05-31T06:40:08.810Z,101006.81
2018-05-31T06:42:43.946Z,100997.70
2018-05-31T06:45:18.968Z,101007.43
2018-05-31T06:47:53.834Z,101004.05
2018-05-31T06:50:28.339Z,101004.64
2018-05-31T06:53:03.470Z,101008.30
2018-05-31T06:55:38.458Z,101005.41
2018-05-31T06:58:13.589Z,101010.78
2018-05-31T07:00:48.354Z,101002.83
2018-05-31T07:03:23.209Z,101007.06
2018-05-31T07:05:58.410Z,101001.86
2018-05-31T07:08:33.433Z,101005.50
2018-05-31T07:11:08.637Z,101002.83
2018-05-31T07:13:43.113Z,100996.53
2018-05-31T07:16:18.041Z,100996.16
2018-05-31T07:18:52.769Z,101002.09
2018-05-31T07:21:27.643Z,101006.77
2018-05-31T07:24:03.030Z,101005.59
2018-05-31T07:26:37.684Z,101001.87
2018-05-31T07:29:12.315Z,101004.43
2018-05-31T07:31:47.448Z,101013.91
2018-05-31T07:34:22.466Z,101011.10
2018-05-31T07:36:57.174Z,101014.23
2018-05-31T07:39:31.943Z,101015.45
2018-05-31T07:42:07.258Z,101016.64
2018-05-31T07:44:41.886Z,101019.86
2018-05-31T07:47:16.981Z,101023.17
2018-05-31T07:49:51.987Z,101013.28
2018-05-31T07:52:27.310Z,101013.03
2018-05-31T07:55:02.490Z,101011.80
2018-05-31T07:57:37.323Z,101007.83
2018-05-31T08:00:12.425Z,101006.35
2018-05-31T08:02:47.282Z,101008.60
2018-05-31T08:05:22.540Z,101014.80
2018-05-31T08:07:57.490Z,101009.55
2018-05-31T08:10:32.690Z,101013.02
2018-05-31T08:13:08.065Z,101016.11
2018-05-31T08:15:43.031Z,101006.59
2018-05-31T08:18:18.212Z,101006.20
2018-05-31T08:20:53.470Z,101005.52
2018-05-31T08:23:28.491Z,101001.71
2018-05-31T08:26:03.394Z,101003.13
2018-05-31T08:28:38.278Z,101005.80
2018-05-31T08:31:13.286Z,101004.15
2018-05-31T08:33:47.910Z,101001.73
2018-05-31T08:36:22.718Z,101012.02
2018-05-31T08:38:57.565Z,101007.78
2018-05-31T08:41:32.106Z,101012.23
2018-05-31T08:44:06.832Z,101017.09
2018-05-31T08:46:42.230Z,101013.42
2018-05-31T08:49:17.340Z,101014.70
2018-05-31T08:51:52.346Z,101006.97
2018-05-31T08:54:27.714Z,101013.00
2018-05-31T08:57:02.253Z,101012.19
2018-05-31T08:59:37.318Z,101009.23
2018-05-31T09:02:12.495Z,101009.03
2018-05-31T09:04:47.946Z,101011.39
2018-05-31T09:07:23.161Z,101014.56
2018-05-31T09:09:58.418Z,101007.77
2018-05-31T09:12:33.782Z,101007.73
2018-05-31T09:15:08.241Z,101004.68
2018-05-31T09:17:43.306Z,101008.13
2018-05-31T09:20:18.063Z,101011.08
2018-05-31T09:22:53.197Z,101005.09
2018-05-31T09:25:28.207Z,101008.91
2018-05-31T09:28:03.009Z,101003.95
2018-05-31T09:30:38.058Z,101006.16
2018-05-31T09:33:13.451Z,100999.97
2018-05-31T09:35:48.659Z,101001.15
2018-05-31T09:38:23.729Z,101002.59
2018-05-31T09:40:58.490Z,101005.55
2018-05-31T09:43:33.781Z,101003.72
2018-05-31T09:46:08.733Z,100999.17
2018-05-31T09:48:43.555Z,101002.76
2018-05-31T09:51:18.881Z,100999.67
2018-05-31T09:53:53.929Z,100999.91
2018-05-31T09:56:28.980Z,101001.09
2018-05-31T09:59:04.083Z,100997.38
2018-05-31T10:01:38.642Z,100993.77
2018-05-31T10:04:14.118Z,100990.49
2018-05-31T10:06:49.222Z,101000.53
2018-05-31T10:09:24.558Z,100994.88
2018-05-31T10:11:59.879Z,100988.92
2018-05-31T10:14:35.194Z,100995.17
2018-05-31T10:17:10.039Z,100998.06
2018-05-31T10:19:44.914Z,100993.18
2018-05-31T10:22:19.924Z,100988.63
2018-05-31T10:24:54.970Z,100989.46
2018-05-31T10:27:29.807Z,100992.34
2018-05-31T10:30:04.547Z,100986.80
2018-05-31T10:32:39.959Z,100979.36
2018-05-31T10:35:14.861Z,100983.89
2018-05-31T10:37:49.593Z,100983.38
2018-05-31T10:40:24.483Z,100981.91
2018-05-31T10:42:58.942Z,100986.42
2018-05-31T10:45:33.918Z,100983.77
2018-05-31T10:48:08.734Z,100978.22
2018-05-31T10:50:43.677Z,100980.22
2018-05-31T10:53:18.517Z,100979.19
2018-05-31T10:55:53.528Z,100974.92
2018-05-31T10:58:28.476Z,100971.91
2018-05-31T11:01:03.505Z,100974.14
2018-05-31T11:03:38.637Z,100964.33
2018-05-31T11:06:13.237Z,100964.86
2018-05-31T11:08:47.694Z,100962.40
2018-05-31T11:11:22.999Z,100964.14
2018-05-31T11:13:57.928Z,100960.28
2018-05-31T11:16:32.975Z,100960.03
2018-05-31T11:19:08.111Z,100956.11
2018-05-31T11:21:42.806Z,100950.44
2018-05-31T11:24:17.811Z,100952.03
2018-05-31T11:26:52.982Z,100945.31
2018-05-31T11:29:28.088Z,100950.88
2018-05-31T11:32:03.317Z,100945.44
2018-05-31T11:34:38.678Z,100949.89
2018-05-31T11:37:13.803Z,100945.27
2018-05-31T11:39:48.861Z,100941.34
2018-05-31T11:42:23.686Z,100943.39
2018-05-31T11:44:58.805Z,100939.08
2018-05-31T11:47:33.941Z,100933.58
2018-05-31T11:50:09.067Z,100936.88
2018-05-31T11:52:44.082Z,100933.94
2018-05-31T11:55:19.275Z,100930.70
2018-05-31T11:57:54.710Z,100927.34
2018-05-31T12:00:29.646Z,100927.82
2018-05-31T12:03:04.546Z,100932.85
2018-05-31T12:05:39.638Z,100928.94
2018-05-31T12:08:14.587Z,100925.56
2018-05-31T12:10:49.403Z,100918.83
2018-05-31T12:13:24.703Z,100918.55
2018-05-31T12:15:59.555Z,100916.42
2018-05-31T12:18:34.457Z,100917.61
2018-05-31T12:21:08.996Z,100922.16
2018-05-31T12:23:44.026Z,100919.12
2018-05-31T12:26:18.708Z,100911.13
2018-05-31T12:28:53.694Z,100917.16
2018-05-31T12:31:28.754Z,100914.17
2018-05-31T12:34:03.697Z,100918.33
2018-05-31T12:36:38.697Z,100919.18
2018-05-31T12:39:13.702Z,100906.94
2018-05-31T12:41:48.814Z,100915.14
2018-05-31T12:44:23.491Z,100912.20
2018-05-31T12:46:58.639Z,100910.44
2018-05-31T12:49:33.896Z,100905.27
2018-05-31T12:52:08.782Z,100905.13
2018-05-31T12:54:43.815Z,100902.05
2018-05-31T12:57:19.003Z,100902.36
2018-05-31T12:59:53.813Z,100907.14
2018-05-31T13:02:28.754Z,100902.05
2018-05-31T13:05:03.430Z,100904.64
2018-05-31T13:07:38.722Z,100897.16
2018-05-31T13:10:13.874Z,100900.41
2018-05-31T13:12:48.679Z,100890.51
2018-05-31T13:15:23.662Z,100892.65
2018-05-31T13:17:58.547Z,100886.81
2018-05-31T13:20:33.637Z,100894.44
2018-05-31T13:23:08.443Z,100876.38
2018-05-31T13:25:43.770Z,100873.61
2018-05-31T13:28:18.869Z,100869.41
2018-05-31T13:30:53.957Z,100873.09
2018-05-31T13:33:29.310Z,100870.46
2018-05-31T13:36:04.414Z,100866.08
2018-05-31T13:38:39.716Z,100864.80
2018-05-31T13:41:14.592Z,100863.70
2018-05-31T13:43:50.126Z,100854.45
2018-05-31T13:46:24.560Z,100857.12
2018-05-31T13:48:59.750Z,100854.83
2018-05-31T13:51:34.715Z,100841.78
2018-05-31T13:54:09.924Z,100844.02
2018-05-31T13:56:45.242Z,100847.08
2018-05-31T13:59:20.557Z,100851.17
2018-05-31T14:01:55.875Z,100851.15
2018-05-31T14:04:31.031Z,100864.19
2018-05-31T14:07:06.127Z,100859.92
2018-05-31T14:09:41.604Z,100862.77
2018-05-31T14:12:16.515Z,100859.14
2018-05-31T14:14:51.527Z,100857.58
2018-05-31T14:17:26.194Z,100859.75
2018-05-31T14:20:01.154Z,100856.97
2018-05-31T14:22:36.157Z,100860.41
2018-05-31T14:25:11.225Z,100860.67
2018-05-31T14:27:46.274Z,100858.00
2018-05-31T14:30:21.414Z,100854.02
2018-05-31T14:32:56.643Z,100846.87
2018-05-31T14:35:31.897Z,100848.58
2018-05-31T14:38:07.005Z,100845.09
2018-05-31T14:40:42.178Z,100850.45
2018-05-31T14:43:17.710Z,100849.86
2018-05-31T14:45:52.638Z,100849.65
2018-05-31T14:48:27.961Z,100853.80
2018-05-31T14:51:03.143Z,100849.36
2018-05-31T14:53:38.150Z,100857.84
2018-05-31T14:56:13.255Z,100858.15
2018-05-31T14:58:48.229Z,100861.27
2018-05-31T15:01:23.013Z,100867.98
2018-05-31T15:03:57.881Z,100864.77
2018-05-31T15:06:32.871Z,100866.94
2018-05-31T15:09:07.526Z,100869.88
2018-05-31T15:11:42.629Z,100869.06
2018-05-31T15:14:17.112Z,100867.37
2018-05-31T15:16:52.159Z,100862.44
2018-05-31T15:19:27.089Z,100865.18
2018-05-31T15:22:02.206Z,100852.23
2018-05-31T15:24:37.153Z,100853.68
2018-05-31T15:27:11.996Z,100849.11
2018-05-31T15:29:47.107Z,100846.41
2018-05-31T15:32:22.212Z,100846.16
2018-05-31T15:34:57.118Z,100847.07
2018-05-31T15:37:31.588Z,100839.31
2018-05-31T15:40:06.412Z,100848.02
2018-05-31T15:42:41.427Z,100844.98
2018-05-31T15:45:16.218Z,100845.16
2018-05-31T15:47:51.038Z,100838.61
2018-05-31T15:50:26.175Z,100839.59
2018-05-31T15:53:01.316Z,100847.40
2018-05-31T15:55:36.269Z,100849.48
2018-05-31T15:58:10.966Z,100842.92
2018-05-31T16:00:46.010Z,100851.81
2018-05-31T16:03:21.271Z,100853.23
2018-05-31T16:05:56.270Z,100851.08
2018-05-31T16:08:31.165Z,100852.09
2018-05-31T16:11:06.178Z,100850.48
2018-05-31T16:13:40.707Z,100849.32
2018-05-31T16:16:15.710Z,100852.17
2018-05-31T16:18:50.660Z,100837.41
2018-05-31T16:21:25.794Z,100842.98
2018-05-31T16:24:01.032Z,100838.73
2018-05-31T16:26:36.290Z,100835.41
2018-05-31T16:29:10.811Z,100827.08
2018-05-31T16:31:45.950Z,100825.95
2018-05-31T16:34:21.279Z,100815.50
2018-05-31T16:36:56.330Z,100822.73
2018-05-31T16:39:31.762Z,100823.16
2018-05-31T16:42:06.977Z,100820.93
2018-05-31T16:44:42.337Z,100818.50
2018-05-31T16:47:17.275Z,100820.06
2018-05-31T16:49:52.327Z,100818.20
2018-05-31T16:52:27.142Z,100823.62
2018-05-31T16:55:02.202Z,100827.64
2018-05-31T16:57:37.027Z,100832.02
2018-05-31T17:00:12.141Z,100836.27
2018-05-31T17:02:47.402Z,100861.58
2018-05-31T17:05:22.545Z,100878.00
2018-05-31T17:07:57.663Z,100888.89
2018-05-31T17:10:32.602Z,100902.81
2018-05-31T17:13:07.554Z,100910.06
2018-05-31T17:15:42.691Z,100916.75
2018-05-31T17:18:17.399Z,100922.03
2018-05-31T17:20:52.228Z,100918.58
2018-05-31T17:23:27.370Z,100912.00
2018-05-31T17:26:02.502Z,100907.19
2018-05-31T17:28:37.206Z,100901.17
2018-05-31T17:31:11.775Z,100917.84
2018-05-31T17:33:47.033Z,100934.80
2018-05-31T17:36:22.350Z,100937.03
2018-05-31T17:38:57.483Z,100951.30
2018-05-31T17:41:32.862Z,100959.29
2018-05-31T17:44:07.947Z,100968.09
2018-05-31T17:46:43.083Z,100979.63
2018-05-31T17:49:18.241Z,100983.92
2018-05-31T17:51:53.273Z,100974.64
2018-05-31T17:54:28.266Z,100981.41
2018-05-31T17:57:03.299Z,100994.91
2018-05-31T17:59:38.161Z,100989.47
2018-05-31T18:02:13.225Z,100993.67
2018-05-31T18:04:48.101Z,100996.42
2018-05-31T18:07:23.179Z,100993.01
2018-05-31T18:09:58.206Z,100979.44
2018-05-31T18:12:33.544Z,100962.25
2018-05-31T18:15:07.965Z,100965.07
2018-05-31T18:17:43.032Z,100967.38
2018-05-31T18:20:17.989Z,100963.81
2018-05-31T18:22:53.077Z,100958.91
2018-05-31T18:25:28.230Z,100947.44
2018-05-31T18:28:03.497Z,100944.92
2018-05-31T18:30:38.497Z,100947.69
2018-05-31T18:33:13.738Z,100948.13
2018-05-31T18:35:48.872Z,100943.96
2018-05-31T18:38:23.784Z,100936.47
2018-05-31T18:40:58.899Z,100928.61
2018-05-31T18:43:34.274Z,100923.25
2018-05-31T18:46:09.351Z,100930.17
2018-05-31T18:48:43.965Z,100927.02
2018-05-31T18:51:20.002Z,100926.96
2018-05-31T18:53:54.974Z,100927.61
2018-05-31T18:56:30.178Z,100933.89
2018-05-31T18:59:05.308Z,100951.52
2018-05-31T19:01:40.567Z,100965.64
2018-05-31T19:04:15.887Z,100964.88
2018-05-31T19:06:51.159Z,100941.73
2018-05-31T19:09:31.372Z,100935.67
2018-05-31T19:12:05.686Z,100945.48
2018-05-31T19:14:40.871Z,100948.24
2018-05-31T19:17:15.888Z,100939.75
2018-05-31T19:19:55.488Z,100937.50
2018-05-31T19:22:30.854Z,100939.94
2018-05-31T19:25:11.269Z,100931.73
2018-05-31T19:27:45.751Z,100925.57
2018-05-31T19:30:26.102Z,100946.58
2018-05-31T19:33:00.720Z,100948.06
2018-05-31T19:35:41.302Z,100943.82
2018-05-31T19:38:16.322Z,100944.69
2018-05-31T19:40:51.426Z,100937.76
2018-05-31T19:43:31.726Z,100941.34
2018-05-31T19:46:06.371Z,100940.48
2018-05-31T19:48:41.535Z,100944.17
2018-05-31T19:51:21.971Z,100942.09
2018-05-31T19:53:57.127Z,100938.36
2018-05-31T19:56:32.360Z,100941.42
2018-05-31T19:59:12.437Z,100939.38
2018-05-31T20:01:53.009Z,100937.72
2018-05-31T20:04:27.659Z,100942.34
2018-05-31T20:07:02.799Z,100944.75
2018-05-31T20:09:37.746Z,100953.95
2018-05-31T20:12:13.084Z,100961.56
2018-05-31T20:14:48.218Z,100959.52
2018-05-31T20:17:23.254Z,100970.09
2018-05-31T20:19:58.302Z,100971.41
2018-05-31T20:22:32.964Z,100971.66
2018-05-31T20:25:08.156Z,100970.20
2018-05-31T20:27:43.040Z,100976.63
2018-05-31T20:30:17.954Z,100973.52
2018-05-31T20:32:52.680Z,100972.53
2018-05-31T20:35:27.434Z,100968.98
2018-05-31T20:38:02.346Z,100965.83
2018-05-31T20:40:37.603Z,100964.02
2018-05-31T20:43:12.538Z,100974.02
2018-05-31T20:45:48.480Z,100967.53
2018-05-31T20:48:23.625Z,100965.27
2018-05-31T20:50:58.597Z,100960.36
2018-05-31T20:53:33.813Z,100970.81
2018-05-31T20:56:08.618Z,100965.69
2018-05-31T20:58:43.864Z,100969.37
2018-05-31T21:01:18.943Z,100965.25
2018-05-31T21:03:53.977Z,100966.40
2018-05-31T21:06:29.750Z,100963.86
2018-05-31T21:09:04.382Z,100964.55
2018-05-31T21:11:39.595Z,100968.60
2018-05-31T21:14:15.159Z,100976.86
2018-05-31T21:16:50.170Z,100978.45
2018-05-31T21:19:26.059Z,100975.32
2018-05-31T21:22:01.503Z,100978.75
2018-05-31T21:24:38.483Z,100973.80
2018-05-31T21:27:14.083Z,100978.15
2018-05-31T21:29:49.170Z,100972.13
2018-05-31T21:32:23.865Z,100970.25
2018-05-31T21:34:58.982Z,100966.30
2018-05-31T21:37:33.841Z,100963.45
2018-05-31T21:40:08.737Z,100965.48
2018-05-31T21:42:43.786Z,100971.22
2018-05-31T21:45:18.817Z,100966.97
2018-05-31T21:47:53.968Z,100970.05
2018-05-31T21:50:28.999Z,100967.73
2018-05-31T21:53:04.142Z,100970.98
2018-05-31T21:55:39.059Z,100971.86
2018-05-31T21:58:14.244Z,100963.61
2018-05-31T22:00:54.614Z,100958.45
2018-05-31T22:03:29.713Z,100951.05
2018-05-31T22:06:04.343Z,100958.02
2018-05-31T22:08:39.242Z,100949.88
2018-05-31T22:11:14.210Z,100955.41
2018-05-31T22:13:49.231Z,100948.07
2018-05-31T22:16:23.933Z,100954.23
2018-05-31T22:18:58.934Z,100948.50
2018-05-31T22:21:34.126Z,100952.25
2018-05-31T22:24:09.043Z,100954.95
2018-05-31T22:26:43.247Z,100947.28
2018-05-31T22:29:18.623Z,100950.27
2018-05-31T22:31:53.346Z,100958.78
2018-05-31T22:34:28.666Z,100958.91
2018-05-31T22:37:03.835Z,100959.94
2018-05-31T22:39:38.565Z,100962.33
2018-05-31T22:42:13.040Z,100965.20
2018-05-31T22:44:47.946Z,100959.22
2018-05-31T22:47:23.114Z,100967.85
2018-05-31T22:49:57.666Z,100964.41
2018-05-31T22:52:32.443Z,100966.95
2018-05-31T22:55:07.062Z,100968.33
2018-05-31T22:57:42.098Z,100965.25
2018-05-31T23:00:17.234Z,100965.78
2018-05-31T23:02:51.900Z,100968.29
2018-05-31T23:05:27.029Z,100965.80
2018-05-31T23:08:01.731Z,100958.17
2018-05-31T23:10:36.338Z,100961.88
2018-05-31T23:13:11.417Z,100954.03
2018-05-31T23:15:46.479Z,100960.02
2018-05-31T23:18:21.737Z,100962.19
2018-05-31T23:20:56.741Z,100969.32
2018-05-31T23:23:31.738Z,100965.77
2018-05-31T23:26:06.377Z,100960.33
2018-05-31T23:28:41.394Z,100956.95
2018-05-31T23:31:16.419Z,100955.83
2018-05-31T23:33:50.940Z,100955.37
2018-05-31T23:36:26.175Z,100957.19
2018-05-31T23:39:01.145Z,100954.09
2018-05-31T23:41:35.951Z,100959.48
2018-05-31T23:44:10.890Z,100960.03
2018-05-31T23:46:46.197Z,100953.30
2018-05-31T23:49:20.926Z,100960.94
2018-05-31T23:51:55.867Z,100954.38
2018-05-31T23:54:30.714Z,100951.39
2018-05-31T23:57:05.372Z,100950.56
2018-05-31T23:59:40.374Z,100953.75
